Time;durP1;ratioP1;P1;durP2;ratioP2;P2;SDS_P1;SDS_P2;PMS_P1;PMS_P2;Temp;Humidity;BMP_temperature;BMP_pressure;BME280_temperature;BME280_humidity;BME280_pressure;Samples;Min_cycle;Max_cycle;Signal;HPM_P1;HPM_P2
2022/05/25 00:02:25;;;;;;;3.87;2.60;;;13.30;99.90;;;;;;5196689;28;20442;-48
2022/05/25 00:04:56;;;;;;;2.47;2.30;;;13.30;99.90;;;;;;5180778;28;20434;-47
2022/05/25 00:07:27;;;;;;;2.83;2.70;;;13.20;99.90;;;;;;5185704;28;20455;-49
2022/05/25 00:09:57;;;;;;;2.30;2.20;;;13.20;99.90;;;;;;5186206;28;20443;-48
2022/05/25 00:12:28;;;;;;;2.50;2.30;;;13.10;99.90;;;;;;5187531;28;20192;-49
2022/05/25 00:14:58;;;;;;;2.20;2.10;;;13.10;99.90;;;;;;5177472;28;20180;-47
2022/05/25 00:17:29;;;;;;;2.30;2.20;;;13.00;99.90;;;;;;5184745;28;20717;-48
2022/05/25 00:19:59;;;;;;;3.03;2.80;;;13.00;99.90;;;;;;5185616;28;20235;-47
2022/05/25 00:22:40;;;;;;;2.97;2.50;;;13.10;99.90;;;;;;5183826;28;20188;-48
2022/05/25 00:25:15;;;;;;;2.30;2.20;;;13.10;99.90;;;;;;5184900;28;20195;-49
2022/05/25 00:27:47;;;;;;;1.80;1.80;;;13.10;99.90;;;;;;5189717;28;20533;-49
2022/05/25 00:30:18;;;;;;;1.63;1.63;;;13.00;99.90;;;;;;5186392;28;21009;-49
2022/05/25 00:32:49;;;;;;;2.70;2.50;;;13.00;99.90;;;;;;5186839;28;20431;-49
2022/05/25 00:35:21;;;;;;;2.03;1.77;;;12.90;99.90;;;;;;5177536;28;20557;-48
2022/05/25 00:37:52;;;;;;;1.57;1.57;;;12.90;99.90;;;;;;5187954;28;20208;-49
2022/05/25 00:40:36;;;;;;;2.13;1.83;;;12.90;99.90;;;;;;5181699;28;21010;-48
2022/05/25 00:43:08;;;;;;;2.10;2.00;;;12.90;99.90;;;;;;5187013;28;20250;-48
2022/05/25 00:45:42;;;;;;;2.20;2.10;;;12.90;99.90;;;;;;5149194;28;21004;-50
2022/05/25 00:48:40;;;;;;;3.07;2.87;;;12.90;99.90;;;;;;5181454;28;20420;-49
2022/05/25 00:51:21;;;;;;;4.23;2.70;;;12.90;99.90;;;;;;5179420;28;20466;-48
2022/05/25 00:53:59;;;;;;;2.50;2.40;;;12.90;99.90;;;;;;5182535;28;20485;-48
2022/05/25 00:56:32;;;;;;;2.90;2.73;;;12.90;99.90;;;;;;5185547;28;20555;-48
2022/05/25 00:59:10;;;;;;;2.47;2.27;;;12.90;99.90;;;;;;5184122;28;20486;-48
2022/05/25 01:01:42;;;;;;;2.87;2.70;;;12.90;99.90;;;;;;5180169;28;20439;-47
2022/05/25 01:04:13;;;;;;;1.93;1.83;;;12.90;99.90;;;;;;5186195;28;21001;-48
2022/05/25 01:06:49;;;;;;;2.90;2.70;;;12.80;99.90;;;;;;5188033;28;20467;-47
2022/05/25 01:09:44;;;;;;;2.20;2.10;;;12.80;99.90;;;;;;5180276;28;20502;-47
2022/05/25 01:12:45;;;;;;;2.70;2.50;;;12.80;99.90;;;;;;5190064;28;20861;-48
2022/05/25 01:15:31;;;;;;;4.73;3.30;;;12.70;99.90;;;;;;5183676;28;20743;-48
2022/05/25 01:18:21;;;;;;;2.50;2.30;;;12.70;99.90;;;;;;5184063;28;20436;-48
2022/05/25 01:21:12;;;;;;;2.60;2.50;;;12.70;99.90;;;;;;5176992;28;20534;-47
2022/05/25 01:23:56;;;;;;;3.00;2.23;;;12.60;99.90;;;;;;5182824;28;20771;-48
2022/05/25 01:26:53;;;;;;;2.30;2.20;;;12.60;99.90;;;;;;5190642;28;20482;-48
2022/05/25 01:30:05;;;;;;;2.17;2.17;;;12.60;99.90;;;;;;5181649;28;20431;-47
2022/05/25 01:32:56;;;;;;;2.20;2.10;;;12.60;99.90;;;;;;5186565;28;20435;-47
2022/05/25 01:35:57;;;;;;;2.27;2.17;;;12.50;99.90;;;;;;5183113;28;20473;-46
2022/05/25 01:38:45;;;;;;;2.20;2.10;;;12.50;99.90;;;;;;5187674;28;20454;-46
2022/05/25 01:41:31;;;;;;;2.87;2.70;;;12.50;99.90;;;;;;5174822;28;20471;-47
2022/05/25 01:44:16;;;;;;;2.57;2.37;;;12.50;99.90;;;;;;5187005;28;20526;-46
2022/05/25 01:46:54;;;;;;;3.47;2.60;;;12.50;99.90;;;;;;5180932;28;21051;-46
2022/05/25 01:49:33;;;;;;;4.23;2.83;;;12.50;99.90;;;;;;5183422;28;20431;-48
2022/05/25 01:52:07;;;;;;;4.20;2.57;;;12.50;99.90;;;;;;5195874;28;20783;-46
2022/05/25 01:54:46;;;;;;;5.20;3.10;;;12.40;99.90;;;;;;5187324;28;20435;-47
2022/05/25 01:57:20;;;;;;;5.97;3.50;;;12.40;99.90;;;;;;5195694;28;20452;-48
2022/05/25 01:59:51;;;;;;;3.83;3.20;;;12.40;99.90;;;;;;5185931;28;20465;-49
2022/05/25 02:05:14;;;;;;;2.83;2.73;;;12.40;99.90;;;;;;5183412;28;20556;-49
2022/05/25 02:08:08;;;;;;;2.50;2.50;;;12.40;99.90;;;;;;5177551;28;20522;-48
2022/05/25 02:10:52;;;;;;;2.20;2.17;;;12.40;99.90;;;;;;5185687;28;20427;-48
2022/05/25 02:13:41;;;;;;;3.17;2.97;;;12.40;99.90;;;;;;5177517;28;20508;-48
2022/05/25 02:16:43;;;;;;;3.70;3.40;;;12.40;99.90;;;;;;5183245;28;20466;-48
2022/05/25 02:19:46;;;;;;;2.90;2.70;;;12.50;99.90;;;;;;5182039;28;20447;-51
2022/05/25 02:22:27;;;;;;;2.80;2.70;;;12.50;99.90;;;;;;5182779;28;20527;-48
2022/05/25 02:25:14;;;;;;;3.60;3.30;;;12.40;99.90;;;;;;5183798;28;20456;-49
2022/05/25 02:27:55;;;;;;;4.20;3.90;;;12.40;99.90;;;;;;5176932;28;20970;-47
2022/05/25 02:30:29;;;;;;;3.57;3.30;;;12.40;99.90;;;;;;5175105;28;20423;-50
2022/05/25 02:33:40;;;;;;;3.53;3.33;;;12.40;99.90;;;;;;5180905;28;20467;-48
2022/05/25 02:36:12;;;;;;;3.53;3.33;;;12.40;99.90;;;;;;5180333;28;21046;-48
2022/05/25 02:38:43;;;;;;;3.60;3.40;;;12.40;99.90;;;;;;5183021;28;20443;-49
2022/05/25 02:41:35;;;;;;;4.13;3.73;;;12.40;99.90;;;;;;5185575;28;20454;-47
2022/05/25 02:44:06;;;;;;;3.83;3.60;;;12.40;99.90;;;;;;5177634;28;20437;-46
2022/05/25 02:46:37;;;;;;;3.60;3.40;;;12.50;99.90;;;;;;5180223;28;20472;-46
2022/05/25 02:49:08;;;;;;;3.93;3.73;;;12.60;99.90;;;;;;5183867;28;20181;-46
2022/05/25 02:51:39;;;;;;;3.80;3.60;;;12.60;99.90;;;;;;5188791;28;20447;-46
2022/05/25 02:54:13;;;;;;;3.00;2.80;;;12.70;99.90;;;;;;5185801;28;20842;-47
2022/05/25 02:56:43;;;;;;;2.67;2.40;;;12.80;99.90;;;;;;5166028;28;20216;-48
2022/05/25 02:59:14;;;;;;;5.37;2.73;;;12.90;99.90;;;;;;5184997;28;20444;-47
2022/05/25 03:01:44;;;;;;;3.30;3.10;;;13.00;99.90;;;;;;5182101;28;20619;-47
2022/05/25 03:04:15;;;;;;;4.73;3.47;;;13.10;99.90;;;;;;5183747;28;20211;-46
2022/05/25 03:06:46;;;;;;;3.47;3.27;;;13.20;99.90;;;;;;5187088;28;20235;-47
2022/05/25 03:09:16;;;;;;;4.20;3.10;;;13.30;99.90;;;;;;5185964;28;20548;-47
2022/05/25 03:11:47;;;;;;;3.70;3.50;;;13.40;99.90;;;;;;5190362;28;20180;-46
2022/05/25 03:14:17;;;;;;;4.10;3.20;;;13.50;99.90;;;;;;5184270;28;20519;-46
2022/05/25 03:16:48;;;;;;;3.13;2.93;;;13.60;99.90;;;;;;5179529;28;20228;-46
2022/05/25 03:19:19;;;;;;;4.00;3.70;;;13.70;99.90;;;;;;5178807;28;20406;-47
2022/05/25 03:21:49;;;;;;;3.70;3.40;;;13.80;99.90;;;;;;5183940;28;20180;-46
2022/05/25 03:24:20;;;;;;;3.20;3.00;;;13.90;99.90;;;;;;5177692;28;20469;-47
2022/05/25 03:26:51;;;;;;;5.33;3.40;;;13.90;99.90;;;;;;5175746;28;20263;-48
2022/05/25 03:29:21;;;;;;;3.93;3.63;;;13.90;99.90;;;;;;5176492;28;20184;-48
2022/05/25 03:31:52;;;;;;;11.37;3.20;;;14.00;99.90;;;;;;5181211;28;20655;-47
2022/05/25 03:34:23;;;;;;;7.60;3.53;;;14.00;99.90;;;;;;5182200;28;20279;-45
2022/05/25 03:36:56;;;;;;;4.47;4.00;;;14.00;99.90;;;;;;5187832;28;20204;-46
2022/05/25 03:39:28;;;;;;;3.93;3.70;;;14.10;99.90;;;;;;5185302;28;20234;-47
2022/05/25 03:42:07;;;;;;;6.80;4.10;;;14.10;99.90;;;;;;5179619;28;20802;-47
2022/05/25 03:44:37;;;;;;;3.40;3.23;;;14.10;99.90;;;;;;5175785;28;20976;-46
2022/05/25 03:47:08;;;;;;;2.97;2.83;;;14.20;99.90;;;;;;5180988;28;20468;-47
2022/05/25 03:49:39;;;;;;;3.67;3.40;;;14.20;99.90;;;;;;5182230;28;20184;-49
2022/05/25 03:52:10;;;;;;;4.37;3.37;;;14.20;99.90;;;;;;5176872;28;20636;-48
2022/05/25 03:54:41;;;;;;;3.60;3.27;;;14.30;99.90;;;;;;5182198;28;20176;-46
2022/05/25 03:57:11;;;;;;;3.20;3.00;;;14.30;99.90;;;;;;5177762;28;20447;-51
2022/05/25 03:59:42;;;;;;;3.13;2.93;;;14.30;99.90;;;;;;5165999;28;20185;-48
2022/05/25 04:02:13;;;;;;;3.80;3.50;;;14.30;99.90;;;;;;5175340;28;20172;-50
2022/05/25 04:04:44;;;;;;;5.93;3.43;;;14.30;99.90;;;;;;5184020;28;20184;-50
2022/05/25 04:07:14;;;;;;;4.63;3.23;;;14.30;99.90;;;;;;5170137;28;20542;-51
2022/05/25 04:09:45;;;;;;;2.80;2.70;;;14.30;99.90;;;;;;5183213;28;20168;-50
2022/05/25 04:12:16;;;;;;;3.53;3.23;;;14.40;99.90;;;;;;5177756;28;20180;-50
2022/05/25 04:14:46;;;;;;;2.60;2.50;;;14.50;99.90;;;;;;5180962;28;20192;-50
2022/05/25 04:17:18;;;;;;;4.30;3.43;;;14.60;99.90;;;;;;5176181;28;20513;-48
2022/05/25 04:19:50;;;;;;;3.13;2.93;;;14.70;99.90;;;;;;5181734;28;20660;-49
2022/05/25 04:22:20;;;;;;;3.00;2.87;;;14.80;99.90;;;;;;5175718;28;20517;-48
2022/05/25 04:24:54;;;;;;;3.30;3.10;;;14.90;99.90;;;;;;5181539;28;20566;-49
2022/05/25 04:27:24;;;;;;;3.00;2.90;;;14.90;99.90;;;;;;5179281;28;20632;-50
2022/05/25 04:29:55;;;;;;;2.47;2.37;;;15.00;99.90;;;;;;5187788;28;20435;-47
2022/05/25 04:32:25;;;;;;;3.07;2.87;;;15.00;99.90;;;;;;5185543;28;20187;-49
2022/05/25 04:34:58;;;;;;;4.40;3.07;;;15.10;99.90;;;;;;5182391;28;20188;-50
2022/05/25 04:40:33;;;;;;;3.17;2.97;;;15.10;99.90;;;;;;5183573;28;20980;-49
2022/05/25 04:43:07;;;;;;;2.80;2.60;;;15.10;99.90;;;;;;5178976;28;20466;-49
2022/05/25 04:45:39;;;;;;;4.13;3.70;;;15.10;99.90;;;;;;5180820;28;20468;-50
2022/05/25 04:48:13;;;;;;;3.50;3.30;;;15.10;99.90;;;;;;5181715;28;20435;-49
2022/05/25 04:50:45;;;;;;;4.20;3.60;;;15.10;99.90;;;;;;5177801;28;20423;-50
2022/05/25 04:53:17;;;;;;;6.03;3.90;;;15.20;99.90;;;;;;5182195;28;20450;-50
2022/05/25 04:58:46;;;;;;;3.40;3.27;;;15.40;99.90;;;;;;5174022;28;21121;-49
2022/05/25 05:01:19;;;;;;;3.47;3.23;;;15.70;99.90;;;;;;5194468;28;20443;-46
2022/05/25 05:03:50;;;;;;;3.33;2.73;;;15.80;99.90;;;;;;5167626;28;20435;-47
2022/05/25 05:06:21;;;;;;;3.23;2.93;;;15.80;99.90;;;;;;5179570;28;20478;-49
2022/05/25 05:08:51;;;;;;;2.93;2.73;;;16.10;99.90;;;;;;5193862;28;20435;-48
2022/05/25 05:11:22;;;;;;;2.57;2.47;;;16.50;99.20;;;;;;5183685;28;20176;-50
2022/05/25 05:13:52;;;;;;;2.77;2.60;;;17.00;97.70;;;;;;5182299;28;20181;-49
2022/05/25 05:16:23;;;;;;;2.67;2.50;;;18.00;94.50;;;;;;5183578;28;20208;-49
2022/05/25 05:18:53;;;;;;;5.17;3.10;;;18.90;87.20;;;;;;5184392;28;20289;-50
2022/05/25 05:21:24;;;;;;;4.53;3.07;;;19.50;76.90;;;;;;5182764;28;20196;-49
2022/05/25 05:23:55;;;;;;;3.00;2.80;;;19.90;70.50;;;;;;5182662;28;20263;-49
2022/05/25 05:26:25;;;;;;;4.17;2.40;;;20.50;66.50;;;;;;5186880;28;20295;-49
2022/05/25 05:28:56;;;;;;;4.10;3.20;;;21.40;61.70;;;;;;5177688;28;20965;-47
2022/05/25 05:31:27;;;;;;;2.73;2.63;;;21.70;55.80;;;;;;5182492;28;20447;-48
2022/05/25 05:33:57;;;;;;;2.73;2.53;;;22.50;53.40;;;;;;5182124;28;20522;-50
2022/05/25 05:36:33;;;;;;;3.50;2.40;;;22.70;52.00;;;;;;5204914;22;20223;-50
2022/05/25 05:39:07;;;;;;;3.20;2.90;;;24.30;50.30;;;;;;5224090;28;20538;-52
2022/05/25 05:41:47;;;;;;;6.80;2.87;;;25.50;45.90;;;;;;5219752;28;20516;-50
2022/05/25 05:44:25;;;;;;;2.63;2.53;;;26.30;44.10;;;;;;5225193;28;20528;-49
2022/05/25 05:46:59;;;;;;;3.47;3.17;;;26.40;42.70;;;;;;5222488;28;20992;-50
2022/05/25 05:49:30;;;;;;;3.30;3.10;;;25.50;42.20;;;;;;5227750;28;20409;-50
2022/05/25 05:52:00;;;;;;;3.47;3.20;;;24.80;43.50;;;;;;5226181;28;20517;-50
2022/05/25 05:54:31;;;;;;;3.60;3.30;;;24.70;43.60;;;;;;5225195;28;20183;-50
2022/05/25 05:57:02;;;;;;;3.43;3.00;;;23.80;44.80;;;;;;5224455;28;20209;-49
2022/05/25 05:59:33;;;;;;;6.60;3.90;;;24.00;45.10;;;;;;5223141;28;20183;-50
2022/05/25 06:02:04;;;;;;;3.80;3.50;;;25.00;43.70;;;;;;5221590;28;20194;-52
2022/05/25 06:04:34;;;;;;;2.90;2.80;;;26.00;42.10;;;;;;5219067;28;20187;-52
2022/05/25 06:07:05;;;;;;;2.87;2.77;;;26.80;40.40;;;;;;5225652;28;20211;-52
2022/05/25 06:09:36;;;;;;;2.73;2.63;;;26.90;39.30;;;;;;5223731;28;20182;-50
2022/05/25 06:12:07;;;;;;;3.77;2.77;;;27.40;39.00;;;;;;5221682;28;20193;-49
2022/05/25 06:14:37;;;;;;;2.83;2.73;;;28.40;37.60;;;;;;5226300;28;20190;-51
2022/05/25 06:19:57;;;;;;;3.30;2.90;;;28.70;35.60;;;;;;5224871;28;20185;-51
2022/05/25 06:22:31;;;;;;;3.90;2.43;;;27.90;35.90;;;;;;5208526;28;20492;-54
2022/05/25 06:25:02;;;;;;;2.30;2.20;;;27.50;36.70;;;;;;5224905;28;20456;-50
2022/05/25 06:27:33;;;;;;;4.80;2.83;;;27.10;37.30;;;;;;5221036;28;20508;-50
2022/05/25 06:30:04;;;;;;;3.20;3.10;;;26.50;37.60;;;;;;5222928;28;20469;-49
2022/05/25 06:32:37;;;;;;;3.10;2.80;;;26.70;37.80;;;;;;5219236;28;20178;-49
2022/05/25 06:35:08;;;;;;;2.70;2.57;;;27.10;37.90;;;;;;5216746;28;20210;-49
2022/05/25 06:37:38;;;;;;;2.70;2.20;;;27.40;37.60;;;;;;5221426;28;21007;-51
2022/05/25 06:40:09;;;;;;;2.77;2.67;;;27.00;37.30;;;;;;5228068;28;20635;-50
2022/05/25 06:42:41;;;;;;;6.33;2.40;;;26.80;38.30;;;;;;5218845;28;20186;-49
2022/05/25 06:45:12;;;;;;;3.10;2.80;;;26.80;38.20;;;;;;5217972;28;20270;-50
2022/05/25 06:47:43;;;;;;;6.07;2.97;;;26.60;38.70;;;;;;5220728;28;20552;-50
2022/05/25 06:50:14;;;;;;;6.73;2.83;;;26.40;38.80;;;;;;5221617;28;20566;-50
2022/05/25 06:52:44;;;;;;;6.57;2.63;;;26.20;39.30;;;;;;5196715;28;20266;-51
2022/05/25 06:55:15;;;;;;;2.33;2.33;;;25.60;39.90;;;;;;5216125;28;20191;-49
2022/05/25 06:57:45;;;;;;;2.50;2.40;;;24.90;40.80;;;;;;5223055;28;20203;-52
2022/05/25 07:00:16;;;;;;;3.07;2.77;;;24.20;41.80;;;;;;5223011;28;20171;-53
2022/05/25 07:02:46;;;;;;;3.60;3.20;;;23.70;42.70;;;;;;5222465;28;20554;-49
2022/05/25 07:05:17;;;;;;;6.93;3.37;;;23.30;43.70;;;;;;5215474;28;20544;-51
2022/05/25 07:07:48;;;;;;;3.80;2.30;;;23.00;44.30;;;;;;5218919;28;20207;-49
2022/05/25 07:10:18;;;;;;;2.27;2.17;;;22.80;44.70;;;;;;5233229;28;20274;-50
2022/05/25 07:12:49;;;;;;;3.73;2.03;;;22.50;45.00;;;;;;5206106;28;20644;-50
2022/05/25 07:15:19;;;;;;;2.77;2.67;;;22.10;45.90;;;;;;5214109;28;20647;-49
2022/05/25 07:17:50;;;;;;;2.80;2.67;;;21.90;46.40;;;;;;5214089;28;20492;-51
2022/05/25 07:20:21;;;;;;;3.43;3.13;;;21.50;47.30;;;;;;5221854;28;20206;-51
2022/05/25 07:22:51;;;;;;;3.63;3.33;;;21.20;48.00;;;;;;5222865;28;20179;-49
2022/05/25 07:25:22;;;;;;;3.40;3.20;;;21.00;48.50;;;;;;5221098;28;20182;-50
2022/05/25 07:27:53;;;;;;;6.10;3.20;;;20.90;48.80;;;;;;5216393;28;20361;-49
2022/05/25 07:30:23;;;;;;;3.00;2.73;;;20.50;49.30;;;;;;5216719;28;20665;-49
2022/05/25 07:32:56;;;;;;;11.33;4.13;;;20.60;49.60;;;;;;5214176;28;20183;-50
2022/05/25 07:35:29;;;;;;;4.90;3.97;;;20.70;49.40;;;;;;5213209;28;20190;-51
2022/05/25 07:38:01;;;;;;;5.37;3.50;;;20.80;49.90;;;;;;5214595;28;20532;-50
2022/05/25 07:40:36;;;;;;;5.77;2.50;;;20.70;49.60;;;;;;5221200;28;20555;-53
2022/05/25 07:43:14;;;;;;;5.80;3.73;;;20.80;49.50;;;;;;5222448;28;20913;-51
2022/05/25 07:45:46;;;;;;;2.73;2.50;;;21.20;49.10;;;;;;5217540;28;20959;-51
2022/05/25 07:48:16;;;;;;;6.47;2.67;;;21.80;48.40;;;;;;5222232;28;20441;-49
2022/05/25 07:50:47;;;;;;;2.73;2.53;;;22.40;47.50;;;;;;5221559;28;20441;-50
2022/05/25 07:56:07;;;;;;;2.43;2.33;;;22.60;47.00;;;;;;5218502;28;20238;-50
2022/05/25 07:58:37;;;;;;;2.50;2.30;;;22.50;46.90;;;;;;5220524;28;20422;-51
2022/05/25 08:01:17;;;;;;;5.03;2.27;;;22.50;47.20;;;;;;5226309;28;20270;-50
2022/05/25 08:06:38;;;;;;;3.30;2.17;;;22.30;47.20;;;;;;5220627;28;20461;-53
2022/05/25 08:09:08;;;;;;;1.80;1.80;;;22.30;47.10;;;;;;5215106;28;20776;-51
2022/05/25 08:11:39;;;;;;;1.70;1.60;;;22.30;47.10;;;;;;5212641;28;20658;-50
2022/05/25 08:14:10;;;;;;;1.90;1.80;;;22.00;47.40;;;;;;5217867;28;21215;-50
2022/05/25 08:16:40;;;;;;;1.90;1.80;;;21.80;47.90;;;;;;5216354;28;20270;-51
2022/05/25 08:19:11;;;;;;;2.60;2.43;;;21.20;48.60;;;;;;5216875;28;20184;-50
2022/05/25 08:21:41;;;;;;;2.03;1.93;;;21.30;49.40;;;;;;5216969;28;20179;-51
2022/05/25 08:24:12;;;;;;;5.70;1.80;;;21.80;48.30;;;;;;5226147;28;20175;-50
2022/05/25 08:26:43;;;;;;;2.17;1.83;;;22.70;47.80;;;;;;5224988;28;20539;-50
2022/05/25 08:29:14;;;;;;;4.43;2.30;;;23.70;45.60;;;;;;5222282;28;20494;-53
2022/05/25 08:31:44;;;;;;;1.53;1.53;;;24.70;44.50;;;;;;5216349;28;20187;-51
2022/05/25 08:34:15;;;;;;;2.63;2.47;;;25.60;42.40;;;;;;5217970;28;20225;-50
2022/05/25 08:36:45;;;;;;;2.00;1.90;;;25.90;41.00;;;;;;5201903;28;20718;-50
2022/05/25 08:39:16;;;;;;;2.60;1.97;;;26.20;40.50;;;;;;5213524;28;20211;-50
2022/05/25 08:41:51;;;;;;;3.20;2.40;;;26.40;39.50;;;;;;5221739;28;20182;-51
2022/05/25 08:44:23;;;;;;;4.00;2.60;;;26.70;38.80;;;;;;5216983;28;20194;-52
2022/05/25 08:46:58;;;;;;;2.63;1.93;;;26.80;39.40;;;;;;5220428;28;20862;-50
2022/05/25 08:49:32;;;;;;;2.70;2.40;;;25.70;40.40;;;;;;5226292;28;20512;-50
2022/05/25 08:52:06;;;;;;;2.93;2.27;;;24.70;41.50;;;;;;5221570;28;20440;-50
2022/05/25 08:54:37;;;;;;;2.10;1.90;;;23.90;42.90;;;;;;5234481;28;20532;-50
2022/05/25 08:57:18;;;;;;;2.53;2.33;;;23.40;44.00;;;;;;5225013;28;20468;-50
2022/05/25 08:59:56;;;;;;;2.87;2.30;;;23.10;44.20;;;;;;5227821;28;20199;-50
2022/05/25 09:02:56;;;;;;;6.87;2.10;;;22.90;44.60;;;;;;5225213;28;20445;-49
2022/05/25 09:05:34;;;;;;;2.77;2.63;;;22.70;45.80;;;;;;5223479;28;20465;-49
2022/05/25 09:08:34;;;;;;;3.63;2.20;;;22.60;46.40;;;;;;5227405;28;20508;-51
2022/05/25 09:11:11;;;;;;;1.97;1.70;;;22.30;46.60;;;;;;5216839;28;20933;-54
2022/05/25 09:13:48;;;;;;;2.23;2.13;;;22.80;46.40;;;;;;5223475;28;20438;-50
2022/05/25 09:16:23;;;;;;;2.10;2.00;;;22.80;45.80;;;;;;5216304;28;20990;-50
2022/05/25 09:18:53;;;;;;;1.40;1.40;;;22.50;46.10;;;;;;5217511;28;21008;-51
2022/05/25 09:21:27;;;;;;;2.13;1.97;;;22.60;46.10;;;;;;5216737;28;20536;-50
2022/05/25 09:24:06;;;;;;;2.13;1.93;;;22.80;46.10;;;;;;5222098;28;20266;-51
2022/05/25 09:26:38;;;;;;;1.90;1.53;;;22.90;44.90;;;;;;5217355;28;20457;-52
2022/05/25 09:29:09;;;;;;;1.93;1.83;;;22.80;45.80;;;;;;5224212;28;21011;-51
2022/05/25 09:32:27;;;;;;;2.40;2.30;;;22.70;46.00;;;;;;5216383;28;20425;-51
2022/05/25 09:35:04;;;;;;;3.33;3.03;;;22.80;46.40;;;;;;5219813;28;20802;-50
2022/05/25 09:38:03;;;;;;;5.33;2.10;;;22.90;45.40;;;;;;5221447;28;20955;-51
2022/05/25 09:40:53;;;;;;;6.30;2.17;;;22.80;43.80;;;;;;5220142;28;20449;-52
2022/05/25 09:43:25;;;;;;;2.63;1.50;;;22.60;44.30;;;;;;5215948;28;21064;-52
2022/05/25 09:45:58;;;;;;;4.23;2.87;;;22.40;44.00;;;;;;5211711;28;24181;-52
2022/05/25 09:48:41;;;;;;;3.27;2.97;;;22.20;44.80;;;;;;5216600;28;20438;-51
2022/05/25 09:51:34;;;;;;;2.97;2.53;;;22.10;44.40;;;;;;5212621;28;20450;-50
2022/05/25 09:54:13;;;;;;;2.20;1.40;;;22.10;45.50;;;;;;5216551;28;20532;-49
2022/05/25 09:56:50;;;;;;;2.00;1.53;;;22.20;45.20;;;;;;5216536;28;20446;-53
2022/05/25 09:59:28;;;;;;;1.90;1.80;;;22.70;45.10;;;;;;5221008;28;20541;-49
2022/05/25 10:01:59;;;;;;;2.00;1.70;;;22.70;44.50;;;;;;5224573;28;20451;-50
2022/05/25 10:04:51;;;;;;;2.13;1.93;;;22.40;43.50;;;;;;5224114;28;20428;-50
2022/05/25 10:07:26;;;;;;;2.27;1.50;;;22.10;44.30;;;;;;5222285;28;20249;-51
2022/05/25 10:10:04;;;;;;;1.30;1.20;;;21.90;44.70;;;;;;5218100;28;20479;-50
2022/05/25 10:12:43;;;;;;;2.33;2.23;;;21.70;45.20;;;;;;5219175;28;20793;-50
2022/05/25 10:15:26;;;;;;;30.47;15.20;;;21.30;45.80;;;;;;5219795;28;20920;-50
2022/05/25 10:17:59;;;;;;;5.90;4.50;;;20.90;45.60;;;;;;5231273;28;20463;-50
2022/05/25 10:20:45;;;;;;;4.40;2.80;;;20.70;45.90;;;;;;5222518;28;21133;-50
2022/05/25 10:23:21;;;;;;;9.13;3.63;;;21.10;45.50;;;;;;5235169;28;20524;-51
2022/05/25 10:25:58;;;;;;;3.00;2.70;;;21.60;44.70;;;;;;5220753;28;20803;-52
2022/05/25 10:28:31;;;;;;;10.83;2.23;;;22.10;44.00;;;;;;5224071;28;20832;-51
2022/05/25 10:37:17;;;;;;;1.40;1.40;;;21.60;43.20;;;;;;5219305;28;20949;-50
2022/05/25 10:39:54;;;;;;;4.83;3.80;;;21.70;43.90;;;;;;5220971;28;20440;-50
2022/05/25 10:42:44;;;;;;;16.23;7.33;;;21.70;44.00;;;;;;5220078;28;20441;-50
2022/05/25 10:45:28;;;;;;;4.27;3.83;;;21.50;44.10;;;;;;5217716;28;20957;-50
2022/05/25 10:48:18;;;;;;;3.07;2.40;;;21.30;44.30;;;;;;5217302;28;20477;-51
2022/05/25 10:51:04;;;;;;;10.03;4.57;;;21.30;44.70;;;;;;5232427;28;20840;-50
2022/05/25 10:54:44;;;;;;;1.83;1.73;;;21.50;44.60;;;;;;5223204;28;20516;-50
2022/05/25 10:56:56;;;;;;;7.47;2.20;;;21.80;44.70;;;;;;5216419;28;21010;-49
2022/05/25 10:59:35;;;;;;;4.60;4.20;;;21.80;42.70;;;;;;5222360;28;20428;-54
2022/05/25 11:02:33;;;;;;;11.50;8.27;;;21.80;42.10;;;;;;5212378;28;20544;-52
2022/05/25 11:05:23;;;;;;;3.60;3.30;;;21.60;42.30;;;;;;5218361;28;20460;-50
2022/05/25 11:08:04;;;;;;;7.10;1.83;;;21.60;43.40;;;;;;5214884;28;20874;-50
2022/05/25 11:10:46;;;;;;;9.63;6.30;;;21.60;44.40;;;;;;5215600;28;20448;-51
2022/05/25 11:13:36;;;;;;;21.93;12.03;;;21.50;44.70;;;;;;5217715;28;20454;-50
2022/05/25 11:16:38;;;;;;;15.33;9.47;;;21.20;44.80;;;;;;5219404;28;20977;-51
2022/05/25 11:19:34;;;;;;;4.60;3.77;;;21.50;44.60;;;;;;5220825;28;20451;-50
2022/05/25 11:22:19;;;;;;;5.30;4.73;;;21.70;44.00;;;;;;5216281;28;20426;-51
2022/05/25 11:25:02;;;;;;;2.10;2.00;;;22.10;42.70;;;;;;5215151;28;20442;-50
2022/05/25 11:28:06;;;;;;;7.87;6.57;;;22.50;41.80;;;;;;5217451;28;20466;-53
2022/05/25 11:31:03;;;;;;;2.10;1.93;;;22.50;41.30;;;;;;5225757;28;20463;-53
2022/05/25 11:33:50;;;;;;;3.03;1.60;;;22.40;41.60;;;;;;5215398;28;20848;-53
2022/05/25 11:36:37;;;;;;;3.70;3.40;;;22.40;41.80;;;;;;5228138;22;21139;-53
2022/05/25 11:39:36;;;;;;;1.73;1.00;;;22.50;41.40;;;;;;5223487;28;20551;-52
2022/05/25 11:42:35;;;;;;;1.43;0.90;;;22.20;40.50;;;;;;5224798;28;20441;-53
2022/05/25 11:45:14;;;;;;;5.10;1.30;;;22.10;41.10;;;;;;5230464;28;20460;-52
2022/05/25 11:48:01;;;;;;;1.37;1.27;;;22.30;41.50;;;;;;5212224;28;20908;-53
2022/05/25 11:50:46;;;;;;;1.03;1.03;;;22.20;40.60;;;;;;5209248;28;20449;-52
2022/05/25 11:53:34;;;;;;;4.20;1.40;;;22.20;40.90;;;;;;5231608;28;20659;-53
2022/05/25 11:56:30;;;;;;;2.83;1.70;;;22.20;41.70;;;;;;5211565;28;20426;-51
2022/05/25 11:59:34;;;;;;;8.20;3.30;;;22.50;40.70;;;;;;5213220;28;20509;-52
2022/05/25 12:02:24;;;;;;;3.40;1.70;;;22.70;39.50;;;;;;5200174;28;20427;-53
2022/05/25 12:05:23;;;;;;;2.57;1.10;;;23.00;39.60;;;;;;5224603;28;20446;-53
2022/05/25 12:08:03;;;;;;;3.30;0.90;;;22.80;38.80;;;;;;5203807;28;20572;-51
2022/05/25 12:10:48;;;;;;;1.47;0.80;;;22.90;39.80;;;;;;5200654;28;20453;-53
2022/05/25 12:13:51;;;;;;;1.30;1.20;;;23.00;39.40;;;;;;5205538;28;20929;-53
2022/05/25 12:16:40;;;;;;;1.70;1.30;;;23.20;39.60;;;;;;5210021;28;20813;-51
2022/05/25 12:19:16;;;;;;;6.60;1.50;;;23.30;39.40;;;;;;5209514;28;20450;-51
2022/05/25 12:21:55;;;;;;;0.80;0.80;;;23.30;39.30;;;;;;5223040;28;20959;-53
2022/05/25 12:24:34;;;;;;;2.77;0.83;;;23.50;39.10;;;;;;5209730;28;20521;-53
2022/05/25 12:27:10;;;;;;;2.70;2.50;;;23.40;39.40;;;;;;5205668;28;20876;-52
2022/05/25 12:29:46;;;;;;;6.30;1.33;;;23.50;39.30;;;;;;5212407;28;20532;-54
2022/05/25 12:32:17;;;;;;;2.17;1.60;;;23.50;40.00;;;;;;5208723;28;20578;-52
2022/05/25 12:34:51;;;;;;;10.50;2.10;;;23.40;39.70;;;;;;5196076;28;20445;-54
2022/05/25 12:37:28;;;;;;;1.60;1.50;;;23.20;39.50;;;;;;5221608;28;20552;-53
2022/05/25 12:40:28;;;;;;;3.47;2.73;;;23.20;39.80;;;;;;5202808;28;20525;-53
2022/05/25 12:42:59;;;;;;;1.17;1.17;;;23.10;39.60;;;;;;5204119;28;20449;-54
2022/05/25 12:48:33;;;;;;;2.83;2.57;;;23.00;40.10;;;;;;5211462;28;20183;-52
2022/05/25 12:51:17;;;;;;;2.87;1.53;;;22.90;40.10;;;;;;5205036;28;20429;-53
2022/05/25 12:53:52;;;;;;;1.77;1.37;;;22.70;40.20;;;;;;5211172;28;20508;-53
2022/05/25 12:56:26;;;;;;;2.20;1.80;;;22.90;40.40;;;;;;5216290;28;20464;-54
2022/05/25 12:59:02;;;;;;;3.80;1.00;;;22.80;40.70;;;;;;5205614;28;20447;-53
2022/05/25 13:01:42;;;;;;;0.97;0.97;;;22.60;40.40;;;;;;5205513;28;20446;-52
2022/05/25 13:04:20;;;;;;;1.83;0.87;;;22.50;41.10;;;;;;5211944;28;20456;-52
2022/05/25 13:07:10;;;;;;;1.30;1.30;;;22.40;40.90;;;;;;5207762;28;20463;-54
2022/05/25 13:09:42;;;;;;;2.10;0.97;;;22.30;41.20;;;;;;5192518;28;20953;-51
2022/05/25 13:12:40;;;;;;;1.80;1.30;;;22.40;42.10;;;;;;5207776;28;20926;-52
2022/05/25 13:15:17;;;;;;;1.70;1.60;;;22.40;42.60;;;;;;5204941;28;20426;-51
2022/05/25 13:17:49;;;;;;;2.20;1.57;;;22.40;42.00;;;;;;5218676;28;20466;-53
2022/05/25 13:20:28;;;;;;;5.80;1.80;;;22.30;41.50;;;;;;5212460;28;20540;-53
2022/05/25 13:23:01;;;;;;;1.67;1.07;;;22.20;40.50;;;;;;5201330;28;20439;-53
2022/05/25 13:25:40;;;;;;;3.83;1.10;;;22.20;41.00;;;;;;5203854;28;20587;-53
2022/05/25 13:28:27;;;;;;;0.90;0.90;;;22.50;41.90;;;;;;5196349;28;20495;-55
2022/05/25 13:31:35;;;;;;;1.20;1.10;;;22.60;40.40;;;;;;5191521;28;20431;-52
2022/05/25 13:34:13;;;;;;;5.20;1.87;;;22.80;39.90;;;;;;5194737;28;24796;-54
2022/05/25 13:36:49;;;;;;;1.30;1.30;;;22.80;39.50;;;;;;5196745;28;22079;-53
2022/05/25 13:39:23;;;;;;;4.80;1.57;;;22.70;39.50;;;;;;5195697;28;20937;-52
2022/05/25 13:42:01;;;;;;;4.50;2.80;;;22.40;40.40;;;;;;5202266;28;20480;-53
2022/05/25 13:44:43;;;;;;;4.63;1.00;;;22.40;40.80;;;;;;5203821;28;20481;-52
2022/05/25 13:47:25;;;;;;;2.10;1.30;;;22.30;40.40;;;;;;5205916;28;20474;-54
2022/05/25 13:49:59;;;;;;;1.03;0.80;;;22.30;39.20;;;;;;5199763;28;20474;-53
2022/05/25 13:52:35;;;;;;;1.43;1.23;;;22.10;38.30;;;;;;5201062;28;20572;-52
2022/05/25 13:55:35;;;;;;;1.53;1.20;;;21.90;38.50;;;;;;5200591;28;20550;-52
2022/05/25 13:58:17;;;;;;;2.30;1.03;;;21.80;39.50;;;;;;5199547;28;20470;-54
2022/05/25 14:00:49;;;;;;;2.50;0.97;;;22.00;39.70;;;;;;5203201;28;20441;-52
2022/05/25 14:03:27;;;;;;;0.80;0.80;;;22.30;39.60;;;;;;5202417;28;20533;-52
2022/05/25 14:06:00;;;;;;;0.57;0.57;;;22.60;39.50;;;;;;5185743;28;20497;-52